< Typhoon 196628 1966 Season Typhoon 196630 >
Typhoon 196629 (KATHY)
General InformationTrack Information on Google Maps || Disaster Info.ResourceGoogle EarthGE AnimationAtom FeedGeoJSON
Detalied Best Track (Time Zone = UTC)
Year Month Day Hour Lat. Long. Pressure (hPa) Wind (kt) Class Image Chart
1966 10 6 18 13.1 154.0 1008 0 2 -- Chart
1966 10 7 00 13.3 153.4 1008 0 2 -- Chart
1966 10 7 06 14.0 153.0 1006 0 2 -- Chart
1966 10 7 12 14.9 152.6 1008 0 2 -- Chart
1966 10 7 18 16.0 152.2 1006 0 2 -- Chart
1966 10 8 00 17.2 151.3 1006 0 2 -- Chart
1966 10 8 06 18.3 150.6 1004 0 2 -- Chart
1966 10 8 12 18.7 150.6 1000 0 2 -- Chart
1966 10 8 18 19.3 150.7 996 0 2 -- Chart
1966 10 9 00 19.7 150.8 990 0 9 -- Chart
1966 10 9 06 20.0 150.9 985 0 9 -- Chart
1966 10 9 12 19.8 151.3 975 0 9 -- Chart
1966 10 9 18 19.6 151.6 970 0 9 -- Chart
1966 10 10 00 19.4 151.5 966 0 9 -- Chart
1966 10 10 06 19.3 151.6 967 0 9 -- Chart
1966 10 10 12 19.2 151.7 967 0 9 -- Chart
1966 10 10 18 19.1 151.6 967 0 9 -- Chart
1966 10 11 00 19.1 151.4 967 0 9 -- Chart
1966 10 11 06 19.3 151.0 965 0 9 -- Chart
1966 10 11 12 19.5 150.8 965 0 9 -- Chart
1966 10 11 18 19.8 150.6 970 0 9 -- Chart
1966 10 12 00 20.2 150.5 975 0 9 -- Chart
1966 10 12 06 20.4 150.3 975 0 9 -- Chart
1966 10 12 12 20.7 150.4 975 0 9 -- Chart
1966 10 12 18 21.1 150.5 975 0 9 -- Chart
1966 10 13 00 21.5 150.9 966 0 9 -- Chart
1966 10 13 06 22.0 151.4 966 0 9 -- Chart
1966 10 13 12 22.5 152.0 960 0 9 -- Chart
1966 10 13 18 23.2 152.8 960 0 9 -- Chart
1966 10 14 00 24.0 153.5 950 0 9 -- Chart
1966 10 14 06 25.1 154.8 947 0 9 -- Chart
1966 10 14 12 25.8 156.2 955 0 9 -- Chart
1966 10 14 18 26.7 157.0 958 0 9 -- Chart
1966 10 15 00 27.6 157.8 960 0 9 -- Chart
1966 10 15 06 28.3 158.7 960 0 9 -- Chart
1966 10 15 12 29.0 159.9 960 0 9 -- Chart
1966 10 15 18 29.2 161.0 958 0 9 -- Chart
1966 10 16 00 29.3 162.0 955 0 9 -- Chart
1966 10 16 06 29.7 163.2 955 0 9 -- Chart
1966 10 16 12 30.2 164.2 955 0 9 -- Chart
1966 10 16 18 30.4 165.2 956 0 9 -- Chart
1966 10 17 00 30.7 166.2 960 0 9 -- Chart
1966 10 17 06 31.2 167.3 960 0 9 -- Chart
1966 10 17 12 31.6 168.8 965 0 9 -- Chart
1966 10 17 18 32.5 170.0 970 0 9 -- Chart
1966 10 18 00 33.3 170.7 965 0 9 -- Chart
1966 10 18 06 34.5 171.4 965 0 9 -- Chart
1966 10 18 12 35.0 172.1 962 0 9 -- Chart
1966 10 18 18 36.4 172.8 962 0 9 -- Chart
1966 10 19 00 37.6 173.7 960 0 9 -- Chart
1966 10 19 06 39.0 174.8 960 0 9 -- Chart
1966 10 19 12 40.5 176.0 958 0 9 -- Chart
1966 10 19 18 41.9 177.2 958 0 9 -- Chart
1966 10 20 00 43.5 178.6 958 0 9 -- Chart
1966 10 20 06 45.0 180.0 958 0 9 -- Chart
1966 10 20 12 46.0 182.0 958 0 9 -- Chart
Japan Meteorological Agency Best Track Data | Correction Date : 1991-07-16
< Typhoon 196628 1966 Season Typhoon 196630 >

Help